Time;durP1;ratioP1;P1;durP2;ratioP2;P2;SDS_P1;SDS_P2;PMS_P1;PMS_P2;Temp;Humidity;BMP_temperature;BMP_pressure;BME280_temperature;BME280_humidity;BME280_pressure;Samples;Min_cycle;Max_cycle;Signal;HPM_P1;HPM_P2
2023/05/04 00:01:14;;;;;;;6.35;4.10;;;;;;;;;;5035942;28;20042;-80
2023/05/04 00:04:00;;;;;;;6.55;3.55;;;;;;;;;;5036004;28;20049;-78
2023/05/04 00:06:46;;;;;;;4.72;3.55;;;;;;;;;;5042002;28;20049;-79
2023/05/04 00:09:32;;;;;;;7.68;3.78;;;;;;;;;;5036133;28;20038;-79
2023/05/04 00:12:17;;;;;;;6.00;3.72;;;;;;;;;;5036004;28;20403;-79
2023/05/04 00:15:03;;;;;;;6.05;4.15;;;;;;;;;;5041211;28;20042;-79
2023/05/04 00:17:51;;;;;;;6.43;4.40;;;;;;;;;;5035512;28;20042;-79
2023/05/04 00:20:37;;;;;;;6.50;4.75;;;;;;;;;;5035811;28;20042;-79
2023/05/04 00:23:22;;;;;;;6.80;4.50;;;;;;;;;;5033503;28;20483;-79
2023/05/04 00:26:08;;;;;;;8.88;5.20;;;;;;;;;;5034502;28;20399;-79
2023/05/04 00:28:53;;;;;;;6.95;5.57;;;;;;;;;;5041177;28;20045;-79
2023/05/04 00:31:38;;;;;;;6.63;4.75;;;;;;;;;;5041603;28;20037;-79
2023/05/04 00:34:24;;;;;;;7.13;4.88;;;;;;;;;;5038764;28;20410;-79
2023/05/04 00:37:10;;;;;;;9.32;5.40;;;;;;;;;;5033430;28;20050;-79
2023/05/04 00:39:55;;;;;;;10.48;6.20;;;;;;;;;;5033436;28;20495;-80
2023/05/04 00:42:41;;;;;;;10.45;5.35;;;;;;;;;;5034051;28;20046;-80
2023/05/04 00:45:27;;;;;;;8.43;5.50;;;;;;;;;;5034599;28;20053;-79
2023/05/04 00:48:13;;;;;;;11.23;5.65;;;;;;;;;;5035280;28;20491;-79
2023/05/04 00:50:59;;;;;;;8.77;5.15;;;;;;;;;;5040938;28;20033;-79
2023/05/04 00:53:44;;;;;;;8.23;5.63;;;;;;;;;;5035648;28;20049;-80
2023/05/04 00:56:31;;;;;;;8.02;4.45;;;;;;;;;;5034904;28;20486;-79
2023/05/04 00:59:16;;;;;;;9.73;4.60;;;;;;;;;;5040701;28;20041;-79
2023/05/04 01:02:01;;;;;;;9.32;5.32;;;;;;;;;;5040451;28;20049;-79
2023/05/04 01:04:46;;;;;;;7.45;5.20;;;;;;;;;;5040649;28;20483;-79
2023/05/04 01:07:55;;;;;;;5.95;5.05;;;;;;;;;;5041052;28;20041;-78
2023/05/04 01:11:00;;;;;;;8.18;4.53;;;;;;;;;;5034780;28;20483;-79
2023/05/04 01:13:47;;;;;;;7.40;5.07;;;;;;;;;;5040532;28;20470;-80
2023/05/04 01:16:32;;;;;;;7.50;5.13;;;;;;;;;;5026442;28;20037;-79
2023/05/04 01:19:17;;;;;;;8.50;5.18;;;;;;;;;;5040272;28;20045;-82
2023/05/04 01:22:03;;;;;;;7.75;5.15;;;;;;;;;;5034666;28;20486;-80
2023/05/04 01:24:49;;;;;;;7.72;5.13;;;;;;;;;;5034674;28;20045;-80
2023/05/04 01:27:45;;;;;;;7.43;5.05;;;;;;;;;;5034648;28;20045;-80
2023/05/04 01:30:42;;;;;;;6.53;5.05;;;;;;;;;;5034614;28;20042;-80
2023/05/04 01:33:28;;;;;;;5.30;4.45;;;;;;;;;;5034535;28;20049;-79
2023/05/04 01:36:13;;;;;;;7.75;4.65;;;;;;;;;;5039744;28;20041;-80
2023/05/04 01:39:02;;;;;;;6.07;4.00;;;;;;;;;;5040080;28;20041;-80
2023/05/04 01:41:48;;;;;;;5.97;4.50;;;;;;;;;;5034038;28;20041;-80
2023/05/04 01:44:33;;;;;;;6.13;4.90;;;;;;;;;;5033760;28;20049;-80
2023/05/04 01:47:19;;;;;;;7.78;4.75;;;;;;;;;;5034165;28;20409;-80
2023/05/04 01:50:05;;;;;;;6.15;4.35;;;;;;;;;;5034679;28;20475;-80
2023/05/04 01:52:50;;;;;;;5.60;4.22;;;;;;;;;;5033481;28;20053;-80
2023/05/04 01:55:35;;;;;;;5.53;3.90;;;;;;;;;;5039485;28;20483;-80
2023/05/04 01:58:20;;;;;;;5.18;3.80;;;;;;;;;;5039972;28;20037;-80
2023/05/04 02:01:06;;;;;;;5.75;4.22;;;;;;;;;;5039621;28;20395;-80
2023/05/04 02:03:52;;;;;;;6.53;4.18;;;;;;;;;;5039535;28;20395;-80
2023/05/04 02:06:37;;;;;;;7.57;4.53;;;;;;;;;;5038636;28;20037;-80
2023/05/04 02:09:23;;;;;;;6.13;4.68;;;;;;;;;;5033957;28;20053;-80
2023/05/04 02:12:08;;;;;;;6.72;4.68;;;;;;;;;;5033774;28;20045;-80
2023/05/04 02:14:54;;;;;;;5.68;4.10;;;;;;;;;;5033704;28;20491;-81
2023/05/04 02:17:39;;;;;;;6.80;3.95;;;;;;;;;;5033698;28;20057;-80
2023/05/04 02:20:25;;;;;;;6.88;4.20;;;;;;;;;;5033687;28;20037;-81
2023/05/04 02:23:10;;;;;;;7.32;4.20;;;;;;;;;;5033620;28;20045;-80
2023/05/04 02:25:56;;;;;;;13.27;4.53;;;;;;;;;;5033994;28;20415;-80
2023/05/04 02:28:42;;;;;;;8.02;4.22;;;;;;;;;;5033468;28;20041;-80
2023/05/04 02:31:28;;;;;;;6.47;4.70;;;;;;;;;;5039270;28;20045;-80
2023/05/04 02:34:13;;;;;;;6.40;4.95;;;;;;;;;;5033400;28;20037;-80
2023/05/04 02:37:05;;;;;;;10.45;4.93;;;;;;;;;;5034158;28;20038;-80
2023/05/04 02:39:53;;;;;;;10.25;5.07;;;;;;;;;;5032984;28;20383;-80
2023/05/04 02:42:38;;;;;;;6.03;4.35;;;;;;;;;;5039037;28;20049;-80
2023/05/04 02:45:24;;;;;;;6.00;4.45;;;;;;;;;;5033283;28;20046;-80
2023/05/04 02:48:10;;;;;;;13.27;5.10;;;;;;;;;;5033533;28;20050;-80
2023/05/04 02:50:55;;;;;;;8.02;4.85;;;;;;;;;;5039221;28;20049;-80
2023/05/04 02:53:41;;;;;;;6.55;4.82;;;;;;;;;;5033437;28;20041;-80
2023/05/04 02:56:26;;;;;;;5.13;4.40;;;;;;;;;;5033393;28;20049;-79
2023/05/04 02:59:12;;;;;;;10.32;4.65;;;;;;;;;;5038997;28;20041;-79
2023/05/04 03:01:58;;;;;;;8.13;4.85;;;;;;;;;;5033378;28;20398;-79
2023/05/04 03:04:43;;;;;;;6.70;4.97;;;;;;;;;;5039494;28;20045;-79
2023/05/04 03:07:29;;;;;;;5.63;4.80;;;;;;;;;;5033537;28;20046;-79
2023/05/04 03:10:15;;;;;;;4.80;4.28;;;;;;;;;;5038814;28;20495;-79
2023/05/04 03:13:04;;;;;;;8.30;4.90;;;;;;;;;;5033558;28;20049;-80
2023/05/04 03:15:49;;;;;;;5.63;4.32;;;;;;;;;;5033631;28;20041;-78
2023/05/04 03:18:35;;;;;;;5.50;4.50;;;;;;;;;;5039719;28;20479;-80
2023/05/04 03:21:23;;;;;;;7.00;4.65;;;;;;;;;;5041862;28;20049;-79
2023/05/04 03:24:10;;;;;;;6.32;4.38;;;;;;;;;;5043125;28;20033;-79
2023/05/04 03:26:56;;;;;;;8.88;4.75;;;;;;;;;;5037473;28;20045;-80
2023/05/04 03:29:42;;;;;;;6.25;4.47;;;;;;;;;;5043241;28;20037;-80
2023/05/04 03:32:27;;;;;;;7.63;5.60;;;;;;;;;;5042325;28;20042;-80
2023/05/04 03:35:13;;;;;;;8.90;5.28;;;;;;;;;;5042128;28;20041;-79
2023/05/04 03:37:59;;;;;;;12.02;5.65;;;;;;;;;;5042284;28;20042;-79
2023/05/04 03:40:45;;;;;;;10.23;5.85;;;;;;;;;;5036644;28;20049;-80
2023/05/04 03:43:31;;;;;;;8.23;5.30;;;;;;;;;;5042205;28;20403;-80
2023/05/04 03:46:18;;;;;;;7.47;5.40;;;;;;;;;;5041713;28;20046;-80
2023/05/04 03:49:04;;;;;;;7.53;5.20;;;;;;;;;;5042116;28;20038;-80
2023/05/04 03:51:50;;;;;;;7.97;4.63;;;;;;;;;;5042043;28;20482;-79
2023/05/04 03:54:35;;;;;;;7.88;5.25;;;;;;;;;;5041868;28;20045;-80
2023/05/04 03:57:23;;;;;;;6.28;4.75;;;;;;;;;;5042410;28;20045;-80
2023/05/04 04:00:11;;;;;;;8.40;5.10;;;;;;;;;;5041798;28;20045;-79
2023/05/04 04:03:09;;;;;;;8.48;5.22;;;;;;;;;;5042405;28;20053;-79
2023/05/04 04:05:56;;;;;;;5.85;4.90;;;;;;;;;;5036014;28;20487;-79
2023/05/04 04:08:43;;;;;;;7.55;4.90;;;;;;;;;;5041732;28;20037;-79
2023/05/04 04:11:29;;;;;;;6.78;4.72;;;;;;;;;;5035992;28;20045;-79
2023/05/04 04:14:14;;;;;;;6.05;4.97;;;;;;;;;;5041420;28;20045;-79
2023/05/04 04:16:59;;;;;;;7.50;5.38;;;;;;;;;;5036215;28;20045;-79
2023/05/04 04:19:45;;;;;;;7.15;5.50;;;;;;;;;;5035764;28;20041;-80
2023/05/04 04:22:30;;;;;;;7.20;5.30;;;;;;;;;;5035870;28;20049;-80
2023/05/04 04:25:16;;;;;;;6.53;5.10;;;;;;;;;;5034810;28;20045;-79
2023/05/04 04:28:02;;;;;;;8.20;5.15;;;;;;;;;;5035627;28;20037;-80
2023/05/04 04:30:47;;;;;;;9.40;5.70;;;;;;;;;;5035681;28;20487;-80
2023/05/04 04:33:33;;;;;;;6.65;5.28;;;;;;;;;;5035415;28;20045;-80
2023/05/04 04:36:19;;;;;;;6.47;5.35;;;;;;;;;;5035305;28;20041;-80
2023/05/04 04:39:04;;;;;;;9.15;5.75;;;;;;;;;;5035522;28;20041;-80
2023/05/04 04:41:50;;;;;;;7.57;6.00;;;;;;;;;;5035276;28;20049;-80
2023/05/04 04:44:36;;;;;;;10.48;6.07;;;;;;;;;;5035840;28;20476;-80
2023/05/04 04:47:21;;;;;;;9.50;6.47;;;;;;;;;;5040828;28;20050;-81
2023/05/04 04:50:07;;;;;;;9.48;6.80;;;;;;;;;;5034996;28;20053;-81
2023/05/04 04:52:52;;;;;;;9.50;6.97;;;;;;;;;;5035339;28;20041;-81
2023/05/04 04:55:38;;;;;;;9.27;7.00;;;;;;;;;;5035049;28;20483;-80
2023/05/04 04:58:23;;;;;;;9.35;6.13;;;;;;;;;;5034590;28;20037;-80
2023/05/04 05:01:09;;;;;;;8.27;5.97;;;;;;;;;;5034522;28;20603;-81
2023/05/04 05:03:54;;;;;;;9.77;6.50;;;;;;;;;;5035079;28;20394;-81
2023/05/04 05:06:40;;;;;;;10.15;6.38;;;;;;;;;;5034812;28;20037;-81
2023/05/04 05:09:26;;;;;;;6.88;5.53;;;;;;;;;;5034931;28;20046;-80
2023/05/04 05:12:11;;;;;;;7.57;4.45;;;;;;;;;;5034699;28;20053;-81
2023/05/04 05:14:56;;;;;;;5.88;4.97;;;;;;;;;;5033647;28;20479;-81
2023/05/04 05:17:41;;;;;;;6.28;4.75;;;;;;;;;;5034394;28;20482;-80
2023/05/04 05:20:27;;;;;;;7.40;5.70;;;;;;;;;;5034619;28;20041;-80
2023/05/04 05:23:12;;;;;;;9.88;5.65;;;;;;;;;;5034455;28;20045;-80
2023/05/04 05:25:58;;;;;;;12.60;6.50;;;;;;;;;;5034494;28;20053;-78
2023/05/04 05:28:43;;;;;;;6.95;5.35;;;;;;;;;;5034804;28;20387;-79
2023/05/04 05:31:29;;;;;;;7.72;5.45;;;;;;;;;;5034312;28;20049;-83
2023/05/04 05:34:15;;;;;;;7.75;5.20;;;;;;;;;;5034378;28;20042;-80
2023/05/04 05:37:00;;;;;;;9.77;5.57;;;;;;;;;;5034201;28;20076;-78
2023/05/04 05:39:46;;;;;;;9.63;6.50;;;;;;;;;;5034549;28;20045;-80
2023/05/04 05:42:32;;;;;;;10.57;5.63;;;;;;;;;;5034145;28;20045;-80
2023/05/04 05:45:18;;;;;;;7.60;6.18;;;;;;;;;;5033636;28;20049;-79
2023/05/04 05:48:03;;;;;;;11.70;7.00;;;;;;;;;;5032037;28;20033;-80
2023/05/04 05:50:48;;;;;;;14.75;6.60;;;;;;;;;;5032530;28;20045;-79
2023/05/04 05:53:34;;;;;;;13.00;9.07;;;;;;;;;;5034374;28;20049;-80
2023/05/04 05:56:20;;;;;;;10.82;7.22;;;;;;;;;;5033625;28;20045;-80
2023/05/04 05:59:06;;;;;;;9.73;6.72;;;;;;;;;;5033923;28;20037;-80
2023/05/04 06:01:52;;;;;;;10.48;6.70;;;;;;;;;;5033276;28;20045;-80
2023/05/04 06:04:37;;;;;;;13.60;9.27;;;;;;;;;;5033454;28;20041;-80
2023/05/04 06:07:23;;;;;;;17.63;10.63;;;;;;;;;;5033432;28;20046;-79
2023/05/04 06:10:09;;;;;;;12.05;7.28;;;;;;;;;;5032965;28;20049;-79
2023/05/04 06:12:53;;;;;;;7.03;5.70;;;;;;;;;;5033268;28;20046;-80
2023/05/04 06:15:38;;;;;;;6.95;4.82;;;;;;;;;;5033580;28;20071;-80
2023/05/04 06:18:24;;;;;;;8.73;4.32;;;;;;;;;;5033251;28;20049;-79
2023/05/04 06:21:10;;;;;;;4.60;4.15;;;;;;;;;;5033427;28;20045;-79
2023/05/04 06:23:55;;;;;;;6.55;5.28;;;;;;;;;;5033934;28;20049;-79
2023/05/04 06:26:41;;;;;;;7.05;5.32;;;;;;;;;;5033478;28;20053;-80
2023/05/04 06:29:26;;;;;;;7.72;5.57;;;;;;;;;;5031886;28;20487;-80
2023/05/04 06:32:12;;;;;;;6.22;4.70;;;;;;;;;;5032860;28;20041;-80
2023/05/04 06:34:58;;;;;;;8.25;4.63;;;;;;;;;;5032339;28;20050;-80
2023/05/04 06:37:44;;;;;;;8.20;4.30;;;;;;;;;;5032430;28;20041;-79
2023/05/04 06:40:29;;;;;;;6.75;4.85;;;;;;;;;;5032674;28;20053;-79
2023/05/04 06:43:14;;;;;;;5.50;4.43;;;;;;;;;;5031516;28;20049;-80
2023/05/04 06:46:03;;;;;;;7.70;4.70;;;;;;;;;;5032526;28;20054;-80
2023/05/04 06:48:48;;;;;;;6.35;4.20;;;;;;;;;;5033070;28;20395;-80
2023/05/04 06:51:36;;;;;;;7.40;5.22;;;;;;;;;;5033378;28;20046;-80
2023/05/04 06:54:22;;;;;;;5.13;4.15;;;;;;;;;;5033265;28;20046;-79
2023/05/04 06:57:07;;;;;;;5.50;3.65;;;;;;;;;;5037147;28;20041;-80
2023/05/04 06:59:53;;;;;;;6.72;3.00;;;;;;;;;;5037651;28;20482;-80
2023/05/04 07:02:38;;;;;;;6.10;3.78;;;;;;;;;;5037233;28;20045;-79
2023/05/04 07:05:25;;;;;;;3.88;3.22;;;;;;;;;;5037496;28;20053;-80
2023/05/04 07:08:11;;;;;;;3.30;3.00;;;;;;;;;;5037139;28;20487;-79
2023/05/04 07:10:57;;;;;;;6.93;3.85;;;;;;;;;;5037368;28;20046;-80
2023/05/04 07:13:42;;;;;;;6.70;4.63;;;;;;;;;;5036022;28;20045;-80
2023/05/04 07:16:27;;;;;;;5.50;4.03;;;;;;;;;;5036749;28;20045;-79
2023/05/04 07:19:13;;;;;;;7.43;4.15;;;;;;;;;;5036883;28;20494;-79
2023/05/04 07:21:59;;;;;;;5.38;3.58;;;;;;;;;;5036873;28;20050;-80
2023/05/04 07:24:44;;;;;;;5.65;3.90;;;;;;;;;;5036935;28;20042;-80
2023/05/04 07:27:30;;;;;;;12.38;6.43;;;;;;;;;;5036895;28;20041;-80
2023/05/04 07:30:16;;;;;;;7.85;4.88;;;;;;;;;;5036739;28;20045;-80
2023/05/04 07:33:01;;;;;;;9.10;5.97;;;;;;;;;;5037013;28;20053;-80
2023/05/04 07:35:46;;;;;;;13.00;7.15;;;;;;;;;;5035797;28;20403;-80
2023/05/04 07:38:32;;;;;;;13.25;6.15;;;;;;;;;;5036876;28;20502;-80
2023/05/04 07:41:18;;;;;;;6.75;4.43;;;;;;;;;;5036845;28;20041;-80
2023/05/04 07:44:04;;;;;;;9.57;5.63;;;;;;;;;;5036318;28;20049;-80
2023/05/04 07:46:49;;;;;;;7.75;4.63;;;;;;;;;;5036222;28;20061;-80
2023/05/04 07:49:34;;;;;;;6.22;3.92;;;;;;;;;;5036467;28;20479;-80
2023/05/04 07:52:20;;;;;;;19.73;9.98;;;;;;;;;;5035395;28;20041;-80
2023/05/04 07:55:06;;;;;;;6.32;4.50;;;;;;;;;;5036605;28;20049;-79
2023/05/04 07:57:52;;;;;;;7.38;4.60;;;;;;;;;;5036093;28;20041;-79
2023/05/04 08:00:38;;;;;;;7.90;5.57;;;;;;;;;;5036252;28;20403;-80
2023/05/04 08:03:23;;;;;;;6.78;4.25;;;;;;;;;;5036034;28;20050;-79
2023/05/04 08:06:09;;;;;;;7.10;3.72;;;;;;;;;;5035602;28;20049;-79
2023/05/04 08:08:55;;;;;;;6.80;3.97;;;;;;;;;;5036179;28;20045;-79
2023/05/04 08:11:41;;;;;;;6.15;4.63;;;;;;;;;;5036030;28;20045;-79
2023/05/04 08:14:26;;;;;;;6.63;4.07;;;;;;;;;;5035417;28;20042;-79
2023/05/04 08:17:11;;;;;;;6.65;4.40;;;;;;;;;;5035681;28;20045;-80
2023/05/04 08:19:57;;;;;;;6.28;4.38;;;;;;;;;;5036390;28;20049;-80
2023/05/04 08:22:42;;;;;;;4.43;4.00;;;;;;;;;;5036267;28;20042;-80
2023/05/04 08:25:28;;;;;;;8.13;5.63;;;;;;;;;;5035458;28;20046;-81
2023/05/04 08:28:14;;;;;;;10.30;5.82;;;;;;;;;;5036222;28;20053;-81
2023/05/04 08:30:59;;;;;;;5.47;3.85;;;;;;;;;;5035568;28;20041;-80
2023/05/04 08:33:45;;;;;;;8.15;5.20;;;;;;;;;;5035882;28;20045;-80
2023/05/04 08:36:30;;;;;;;8.55;6.32;;;;;;;;;;5035051;28;20045;-79
2023/05/04 08:39:17;;;;;;;6.38;4.45;;;;;;;;;;5036640;28;20482;-79
2023/05/04 08:42:03;;;;;;;7.60;5.03;;;;;;;;;;5036286;28;20041;-80
2023/05/04 08:44:48;;;;;;;10.45;5.50;;;;;;;;;;5035162;28;20041;-77
2023/05/04 08:47:34;;;;;;;6.45;5.05;;;;;;;;;;5042594;28;20037;-76
2023/05/04 08:50:19;;;;;;;3.13;2.65;;;;;;;;;;5035145;28;20049;-77
2023/05/04 08:53:10;;;;;;;6.78;3.75;;;;;;;;;;5042492;28;20519;-78
2023/05/04 08:55:55;;;;;;;11.93;5.95;;;;;;;;;;5035387;28;20041;-78
2023/05/04 08:58:48;;;;;;;7.75;4.03;;;;;;;;;;5035348;28;20045;-78
2023/05/04 09:01:36;;;;;;;8.40;4.07;;;;;;;;;;5035438;28;20049;-81
2023/05/04 09:04:22;;;;;;;4.85;4.03;;;;;;;;;;5035182;28;20394;-81
2023/05/04 09:07:08;;;;;;;13.20;5.75;;;;;;;;;;5041885;28;20414;-78
2023/05/04 09:09:53;;;;;;;11.65;6.30;;;;;;;;;;5034690;28;20041;-79
2023/05/04 09:12:39;;;;;;;5.72;4.47;;;;;;;;;;5034857;28;20411;-77
2023/05/04 09:15:25;;;;;;;6.53;4.53;;;;;;;;;;5034417;28;20104;-78
2023/05/04 09:18:10;;;;;;;7.63;4.85;;;;;;;;;;5034178;28;20053;-78
2023/05/04 09:20:56;;;;;;;8.43;5.13;;;;;;;;;;5034836;28;20038;-77
2023/05/04 09:23:46;;;;;;;7.22;4.53;;;;;;;;;;5034795;28;20049;-78
2023/05/04 09:26:32;;;;;;;5.80;4.30;;;;;;;;;;5034224;28;20403;-78
2023/05/04 09:29:18;;;;;;;11.00;5.20;;;;;;;;;;5034447;28;20041;-77
2023/05/04 09:32:05;;;;;;;7.30;4.82;;;;;;;;;;5034444;28;20045;-76
2023/05/04 09:34:51;;;;;;;6.75;4.90;;;;;;;;;;5034509;28;20049;-77
2023/05/04 09:37:46;;;;;;;7.93;5.55;;;;;;;;;;5034345;28;20041;-77
2023/05/04 09:40:39;;;;;;;10.50;6.95;;;;;;;;;;5034470;28;20058;-76
2023/05/04 09:43:24;;;;;;;7.57;4.88;;;;;;;;;;5035105;28;20053;-76
2023/05/04 09:46:17;;;;;;;10.00;4.93;;;;;;;;;;5034221;28;20066;-77
2023/05/04 09:49:01;;;;;;;9.75;5.70;;;;;;;;;;5034118;28;20050;-78
2023/05/04 09:51:47;;;;;;;12.30;5.80;;;;;;;;;;5034676;28;20049;-77
2023/05/04 09:54:34;;;;;;;6.30;4.65;;;;;;;;;;5034192;28;20046;-77
2023/05/04 09:57:22;;;;;;;6.25;5.03;;;;;;;;;;5033686;28;20487;-78
2023/05/04 10:00:12;;;;;;;6.10;4.25;;;;;;;;;;5040099;28;20395;-77
2023/05/04 10:03:02;;;;;;;6.60;5.15;;;;;;;;;;5034337;28;20037;-77
2023/05/04 10:05:48;;;;;;;6.30;5.15;;;;;;;;;;5039920;28;20041;-77
2023/05/04 10:08:34;;;;;;;8.48;5.20;;;;;;;;;;5033996;28;20046;-76
2023/05/04 10:11:24;;;;;;;7.38;5.10;;;;;;;;;;5033699;28;20046;-77
2023/05/04 10:14:12;;;;;;;6.18;4.55;;;;;;;;;;5032928;28;20045;-77
2023/05/04 10:17:01;;;;;;;10.40;6.32;;;;;;;;;;5033704;28;20041;-77
2023/05/04 10:20:16;;;;;;;8.27;4.90;;;;;;;;;;5034452;28;20463;-77
2023/05/04 10:23:23;;;;;;;9.57;5.70;;;;;;;;;;4973830;28;20045;-78
2023/05/04 10:26:21;;;;;;;8.27;5.35;;;;;;;;;;5033109;28;20033;-80
2023/05/04 10:29:28;;;;;;;13.38;8.10;;;;;;;;;;5033663;28;20041;-77
2023/05/04 10:32:21;;;;;;;12.27;7.82;;;;;;;;;;5033594;28;20050;-78
2023/05/04 10:35:08;;;;;;;10.57;7.10;;;;;;;;;;5033550;28;20045;-78
2023/05/04 10:37:55;;;;;;;10.10;6.28;;;;;;;;;;5033470;28;20041;-80
2023/05/04 10:40:41;;;;;;;8.23;5.65;;;;;;;;;;5033585;28;20387;-80
2023/05/04 10:43:29;;;;;;;7.63;4.30;;;;;;;;;;5033536;28;20046;-78
2023/05/04 10:46:21;;;;;;;11.05;6.35;;;;;;;;;;5033439;28;20045;-76
2023/05/04 10:49:16;;;;;;;8.18;5.45;;;;;;;;;;5033692;28;20033;-78
2023/05/04 10:52:14;;;;;;;7.80;4.43;;;;;;;;;;5033302;28;20037;-78
2023/05/04 10:55:01;;;;;;;10.80;7.55;;;;;;;;;;5033430;28;20488;-78
2023/05/04 10:57:54;;;;;;;14.40;9.18;;;;;;;;;;5032964;28;20403;-78
2023/05/04 11:00:43;;;;;;;7.38;4.50;;;;;;;;;;5033561;28;20041;-78
2023/05/04 11:03:39;;;;;;;13.25;9.00;;;;;;;;;;5033709;28;20050;-78
2023/05/04 11:06:25;;;;;;;11.18;7.45;;;;;;;;;;5033296;28;20042;-78
2023/05/04 11:09:12;;;;;;;6.13;4.10;;;;;;;;;;5033554;28;20391;-80
2023/05/04 11:11:58;;;;;;;9.80;5.05;;;;;;;;;;5033619;28;20049;-78
2023/05/04 11:14:43;;;;;;;5.15;4.05;;;;;;;;;;5033439;28;20487;-77
2023/05/04 11:17:31;;;;;;;7.55;4.28;;;;;;;;;;5033382;28;20407;-77
2023/05/04 11:20:24;;;;;;;4.80;3.90;;;;;;;;;;5033438;28;20045;-78
2023/05/04 11:23:15;;;;;;;7.57;5.60;;;;;;;;;;5033231;28;20041;-80
2023/05/04 11:26:06;;;;;;;7.35;4.97;;;;;;;;;;5033009;28;20045;-79
2023/05/04 11:28:51;;;;;;;11.10;7.10;;;;;;;;;;5033080;28;20475;-79
2023/05/04 11:31:37;;;;;;;10.75;5.65;;;;;;;;;;5033027;28;20049;-80
2023/05/04 11:34:23;;;;;;;5.18;4.25;;;;;;;;;;5033047;28;20046;-79
2023/05/04 11:37:08;;;;;;;8.52;5.68;;;;;;;;;;5032681;28;20042;-80
2023/05/04 11:39:55;;;;;;;11.13;5.70;;;;;;;;;;5032944;28;20042;-79
2023/05/04 11:42:41;;;;;;;12.40;8.38;;;;;;;;;;5035380;28;20049;-79
2023/05/04 11:45:30;;;;;;;9.80;7.00;;;;;;;;;;5035962;28;20045;-79
2023/05/04 11:48:16;;;;;;;8.82;5.60;;;;;;;;;;5036490;28;20045;-80
2023/05/04 11:51:02;;;;;;;6.88;4.28;;;;;;;;;;5036401;28;20045;-80
2023/05/04 11:53:48;;;;;;;7.80;3.40;;;;;;;;;;5036537;28;20042;-76
2023/05/04 11:56:41;;;;;;;4.97;3.28;;;;;;;;;;5042756;28;20038;-76
2023/05/04 11:59:26;;;;;;;3.75;3.08;;;;;;;;;;5036181;28;20053;-81
2023/05/04 12:02:15;;;;;;;7.15;4.07;;;;;;;;;;5036395;28;20041;-79
2023/05/04 12:05:02;;;;;;;6.70;4.03;;;;;;;;;;5036266;28;20391;-79
2023/05/04 12:07:47;;;;;;;9.73;6.38;;;;;;;;;;5036500;28;20046;-78
2023/05/04 12:10:33;;;;;;;5.47;3.90;;;;;;;;;;5036145;28;20041;-78
2023/05/04 12:13:19;;;;;;;8.20;5.15;;;;;;;;;;5036320;28;20344;-80
2023/05/04 12:16:23;;;;;;;5.95;4.55;;;;;;;;;;5035897;28;20045;-79
2023/05/04 12:19:13;;;;;;;3.53;3.13;;;;;;;;;;5036572;28;20049;-79
2023/05/04 12:22:01;;;;;;;6.47;3.20;;;;;;;;;;5036449;28;20045;-79
2023/05/04 12:24:46;;;;;;;7.85;4.53;;;;;;;;;;5036339;28;20049;-82
2023/05/04 12:27:32;;;;;;;7.20;3.92;;;;;;;;;;5035883;28;20034;-79
2023/05/04 12:30:17;;;;;;;5.82;4.38;;;;;;;;;;5035700;28;20050;-78
2023/05/04 12:33:04;;;;;;;6.00;4.60;;;;;;;;;;5035892;28;20045;-79
2023/05/04 12:35:49;;;;;;;7.63;4.03;;;;;;;;;;5036020;28;20045;-79
2023/05/04 12:38:36;;;;;;;7.07;4.00;;;;;;;;;;5036069;28;20038;-79
2023/05/04 12:41:22;;;;;;;6.00;4.22;;;;;;;;;;5036035;28;20038;-82
2023/05/04 12:44:10;;;;;;;5.30;4.20;;;;;;;;;;5035256;28;20491;-82
2023/05/04 12:46:56;;;;;;;11.60;6.05;;;;;;;;;;5035550;28;20057;-80
2023/05/04 12:49:42;;;;;;;6.88;4.63;;;;;;;;;;5037068;28;20041;-81
2023/05/04 12:52:27;;;;;;;6.97;4.38;;;;;;;;;;5035766;28;20046;-77
2023/05/04 12:55:13;;;;;;;7.03;5.72;;;;;;;;;;5037405;28;20049;-79
2023/05/04 12:57:58;;;;;;;8.48;5.90;;;;;;;;;;5035719;28;20041;-76
2023/05/04 13:00:44;;;;;;;8.02;6.80;;;;;;;;;;5035553;28;20395;-77
2023/05/04 13:03:29;;;;;;;8.77;6.18;;;;;;;;;;5042856;28;20402;-77
2023/05/04 13:06:15;;;;;;;14.57;8.10;;;;;;;;;;5035949;28;20045;-77
2023/05/04 13:09:04;;;;;;;8.50;6.18;;;;;;;;;;5036012;28;20053;-77
2023/05/04 13:11:49;;;;;;;9.73;6.32;;;;;;;;;;5035442;28;20045;-77
2023/05/04 13:14:35;;;;;;;10.70;7.15;;;;;;;;;;5035768;28;20426;-77
2023/05/04 13:17:21;;;;;;;11.70;7.00;;;;;;;;;;5035483;28;20053;-77
2023/05/04 13:20:07;;;;;;;12.18;8.60;;;;;;;;;;5036150;28;20483;-77
2023/05/04 13:22:52;;;;;;;14.82;8.90;;;;;;;;;;5036191;28;20046;-79
2023/05/04 13:25:38;;;;;;;13.77;9.23;;;;;;;;;;5035230;28;20046;-78
2023/05/04 13:28:23;;;;;;;12.68;10.80;;;;;;;;;;5036193;28;20041;-78
2023/05/04 13:31:09;;;;;;;13.35;9.52;;;;;;;;;;5036408;28;20049;-82
2023/05/04 13:33:55;;;;;;;17.50;12.10;;;;;;;;;;5035378;28;20041;-78
2023/05/04 13:36:41;;;;;;;15.88;10.93;;;;;;;;;;5035033;28;20045;-79
2023/05/04 13:39:27;;;;;;;15.90;11.23;;;;;;;;;;5036379;28;20045;-77
2023/05/04 13:42:13;;;;;;;19.27;12.77;;;;;;;;;;5036719;28;20045;-77
2023/05/04 13:44:58;;;;;;;23.80;16.27;;;;;;;;;;5035920;28;20049;-78
2023/05/04 13:47:44;;;;;;;33.60;17.90;;;;;;;;;;5036722;28;20053;-78
2023/05/04 13:50:31;;;;;;;37.65;21.20;;;;;;;;;;5043511;28;20041;-78
2023/05/04 13:53:16;;;;;;;28.13;17.85;;;;;;;;;;5036157;28;20053;-78
2023/05/04 13:56:01;;;;;;;21.63;14.93;;;;;;;;;;5037408;28;20053;-78
2023/05/04 13:58:47;;;;;;;17.65;10.60;;;;;;;;;;5037454;28;20037;-78
2023/05/04 14:01:34;;;;;;;11.90;8.82;;;;;;;;;;5036252;28;20045;-78
2023/05/04 14:04:19;;;;;;;9.77;6.25;;;;;;;;;;5041968;28;20050;-78
2023/05/04 14:07:05;;;;;;;26.20;11.85;;;;;;;;;;5036410;28;20053;-78
2023/05/04 14:09:51;;;;;;;14.30;9.40;;;;;;;;;;5035681;28;20041;-78
2023/05/04 14:12:36;;;;;;;11.95;7.90;;;;;;;;;;5035540;28;20037;-78
2023/05/04 14:15:21;;;;;;;11.82;7.10;;;;;;;;;;5035597;28;20487;-78
2023/05/04 14:18:07;;;;;;;12.55;7.93;;;;;;;;;;5041598;28;20041;-78
2023/05/04 14:20:52;;;;;;;12.30;7.78;;;;;;;;;;5036490;28;20499;-78
2023/05/04 14:23:39;;;;;;;17.05;7.95;;;;;;;;;;5036405;28;20045;-78
2023/05/04 14:26:24;;;;;;;13.65;6.93;;;;;;;;;;5035794;28;20049;-78
2023/05/04 14:29:09;;;;;;;9.07;6.47;;;;;;;;;;5036213;28;20041;-78
2023/05/04 14:31:54;;;;;;;8.45;5.97;;;;;;;;;;5035497;28;20049;-78
2023/05/04 14:34:40;;;;;;;8.95;5.18;;;;;;;;;;5034589;28;20033;-78
2023/05/04 14:37:25;;;;;;;7.82;5.22;;;;;;;;;;5034526;28;20046;-78
2023/05/04 14:40:11;;;;;;;5.28;4.20;;;;;;;;;;5032897;28;20049;-76
2023/05/04 14:42:58;;;;;;;6.18;3.70;;;;;;;;;;5034510;28;20049;-77
2023/05/04 14:45:43;;;;;;;9.20;5.30;;;;;;;;;;5035459;28;20061;-78
2023/05/04 14:48:28;;;;;;;7.65;4.90;;;;;;;;;;5034613;28;20399;-78
2023/05/04 14:51:21;;;;;;;6.28;4.53;;;;;;;;;;5033887;28;20045;-78
2023/05/04 14:54:07;;;;;;;10.50;5.50;;;;;;;;;;5033570;28;20050;-78
2023/05/04 14:56:53;;;;;;;5.45;3.28;;;;;;;;;;5033697;28;20045;-78
2023/05/04 14:59:38;;;;;;;10.05;5.55;;;;;;;;;;5036358;28;20491;-78
2023/05/04 15:02:23;;;;;;;6.10;3.97;;;;;;;;;;5034865;28;20046;-77
2023/05/04 15:05:11;;;;;;;13.38;5.32;;;;;;;;;;5034936;28;20058;-77
2023/05/04 15:07:57;;;;;;;13.02;7.43;;;;;;;;;;5035565;28;20045;-78
2023/05/04 15:10:43;;;;;;;6.93;4.18;;;;;;;;;;5036177;28;20046;-78
2023/05/04 15:13:29;;;;;;;6.72;4.70;;;;;;;;;;5036766;28;20037;-77
2023/05/04 15:16:20;;;;;;;7.65;5.65;;;;;;;;;;5037335;28;20037;-80
2023/05/04 15:19:07;;;;;;;7.68;4.93;;;;;;;;;;5037933;28;20041;-78
2023/05/04 15:21:52;;;;;;;8.68;5.22;;;;;;;;;;5040680;28;20045;-77
2023/05/04 15:24:41;;;;;;;14.35;7.18;;;;;;;;;;5037426;28;20049;-77
2023/05/04 15:27:25;;;;;;;16.80;8.38;;;;;;;;;;5036929;28;20398;-79
2023/05/04 15:30:14;;;;;;;18.65;8.70;;;;;;;;;;5036672;28;20041;-77
2023/05/04 15:33:00;;;;;;;16.77;6.65;;;;;;;;;;5036885;28;20041;-78
2023/05/04 15:35:49;;;;;;;14.80;7.82;;;;;;;;;;5042908;28;20045;-78
2023/05/04 15:38:35;;;;;;;11.98;7.95;;;;;;;;;;5037090;28;20049;-77
2023/05/04 15:41:22;;;;;;;13.75;7.00;;;;;;;;;;5038189;28;20042;-77
2023/05/04 15:44:13;;;;;;;34.15;17.33;;;;;;;;;;5041870;28;20045;-78
2023/05/04 15:46:58;;;;;;;12.13;6.90;;;;;;;;;;5036153;28;20053;-76
2023/05/04 15:49:43;;;;;;;39.28;18.77;;;;;;;;;;5036931;28;20057;-78
2023/05/04 15:52:29;;;;;;;40.13;18.75;;;;;;;;;;5036560;28;20037;-74
2023/05/04 15:55:15;;;;;;;113.47;39.70;;;;;;;;;;5036404;28;20042;-76
2023/05/04 15:58:00;;;;;;;35.03;14.57;;;;;;;;;;5037304;28;20038;-76
2023/05/04 16:00:46;;;;;;;11.85;5.85;;;;;;;;;;5036650;28;20041;-75
2023/05/04 16:03:32;;;;;;;8.32;5.30;;;;;;;;;;5036366;28;20045;-76
2023/05/04 16:06:25;;;;;;;14.90;8.80;;;;;;;;;;5036386;28;20045;-77
2023/05/04 16:09:15;;;;;;;24.00;12.50;;;;;;;;;;5036156;28;20038;-76
2023/05/04 16:12:01;;;;;;;14.88;7.22;;;;;;;;;;5036006;28;20053;-77
2023/05/04 16:14:47;;;;;;;14.65;9.13;;;;;;;;;;5034876;28;20038;-77
2023/05/04 16:17:34;;;;;;;14.73;9.60;;;;;;;;;;5036101;28;20041;-77
2023/05/04 16:20:19;;;;;;;15.90;9.48;;;;;;;;;;5035944;28;20045;-77
2023/05/04 16:23:05;;;;;;;34.67;16.77;;;;;;;;;;5035431;28;20049;-76
2023/05/04 16:25:50;;;;;;;31.77;19.67;;;;;;;;;;5036118;28;20046;-77
2023/05/04 16:28:36;;;;;;;20.33;12.40;;;;;;;;;;5035116;28;20399;-77
2023/05/04 16:31:22;;;;;;;12.63;7.60;;;;;;;;;;5035559;28;20053;-75
2023/05/04 16:34:08;;;;;;;9.38;6.85;;;;;;;;;;5034592;28;20479;-78